Yakutat, Alaska
Current Conditions -  °F | °C
As of 11:53 AM on Thursday 27 Nov 2014 (Local Time) from PAYA Reporting Station
Clear Clear  
Wind Chill: 28°   Ceiling: Unl
Heat Index: 33°   Visibility: 10mi
Dew Point: 15°   Wind: 6mph
Humidity: 48%   Direction: 40°NE
Pressure: 30.14"   Gusts: NA
Location:  59.54°N, 139.73°W
Report Text: PAYA 272053Z 04005KT 10SM CLR 01/M09 A3014 RMK AO2 SLP206 T00061094 50003
Loading
Personal Weather Stations






























Interactive Weather Map New forecast layout! Learn more

10-Day Weather Forecast

Advertisements
Track Severe Weather on mobile